Airfield :
LOGIN :

Register | Disclaimer

   EN    FR    IT 

 










Legend :    VFR   Marginal VFR   IFR   Intensive IFR   Very Intensive IFR
Visi :
Ceiling :
>= 8 km
>= 3000ft
5 to 8 km
1000 to 3000 ft
1500m to 5 km
500 to 1000 ft
800 to 1500m
200 to 500 ft
< 800m
< 200 ft
Symbols :   Thunderstorms  Fog  Heavy snow  Heavy precipitations  Wind > 20 kt
SIGMETs :     Misc.  Thunderstorms  Icing  Turbulence  Mountain Waves  Volcanic Ashes







- Airport Elevation : 359 ft
- IATA code : BVA
- Download approach charts


LFOB - Beauvais

CURRENT METAR :
  • 162200Z AUTO 25007KT 9999 SCT020/// BKN034/// BKN046/// ///TCU 03/02 Q1021 TEMPO 3000 RA OVC003

EXPIRED METARs :
  • 162130Z AUTO 25004KT 9999 BKN021/// OVC029/// ///TCU 03/02 Q1021 TEMPO 3000 RA OVC003
  • 162100Z AUTO VRB02KT 9999 -RA FEW009 BKN026 BKN031 03/02 Q1021 TEMPO 3000 RA OVC003
  • 162030Z AUTO 27002KT 9999 -RA FEW015/// SCT029/// BKN035/// ///TCU 03/01 Q1021 TEMPO 3000 RA OVC003
  • 162000Z AUTO 27004KT 9999 -RA FEW016/// SCT031/// BKN039/// ///TCU 03/01 Q1021 TEMPO 3000 RA OVC003
  • 161930Z AUTO 29004KT 9999 -RA SCT020 BKN030 BKN046 02/01 Q1021 TEMPO 3000 RA OVC003

TAF TAF LFOB
Valid from the 16 at 18:00 until the 17 at 18:00 UTC


161700Z 1618/1718 30010KT 9999 BKN020
BECMG 1619/1621 25005KT
TEMPO 1621/1702 3000 RA OVC003
BECMG 1702/1703 0200 FZFG VV///
BECMG 1709/1711 1500 BR OVC003
TEMPO 1713/1717 3000 BR NSC
ATIS : +33 3 44 11 49 28
No reported NOTAMs for that airfield.



MET'MAP, your aeronautical weather chart ! - Copyright ORBIFLY December 2007 - Disclaimer

ORBIFLY MET'MAP TEAM :

Programming & Development : Alexandra Zaïnal
Concept & Development : Baudouin d'Aumeries
Co-Development & Prog : Marc-Olivier Méhu
Technical & hardware support : Manuel Goepfert

Contact : metmap@orbifly.com




SOURCES & CREDITS :

   NOAA